Madeira Beach, FL

4:21 PM EDT on September 17, 2014 (GMT -0400)
LongBayouWay | Change Station
CLOSE
Current Station
Personal Weather Station
Location: St Petersburg, FL
Elevation: 16 ft
Nearby Weather Stations

Elev 16 ft 27.83 °N, 82.77 °W | Updated 11 minutes ago

Partly Cloudy
Partly Cloudy
79.7 °F
Feels Like 86 °F
N
4.7
Wind Variable Wind from SSW

Today
High -- | Low -- °F
--% Chance of Precip.
Yesterday
High -- | Low -- °F
Precip. -- in
7:17 AM 7:33 PM
Waning Crescent, 33% visible
Pressure 29.89 in
Visibility 4.0 miles
Clouds Few 900 ft
Mostly Cloudy 1700 ft
Mostly Cloudy 2600 ft
Heat Index 86 °F
Dew Point 79 °F
Humidity 99%
Rainfall 2.20 in
Snow Depth Not available.
UV 4 out of 12
Pollen 3.20 out of 12
Air Quality Not available.
Flu Activity Not available.
METAR KPIE 171953Z 00000KT 4SM -RA BR FEW009 BKN017 BKN026 26/24 A2989 RMK AO2 RAB52 SLP120 P0002 T02610239

More Conditions Fewer Conditions

Pressure 29.89 in
Visibility 4.0 miles
Clouds Few 900 ft
Mostly Cloudy 1700 ft
Mostly Cloudy 2600 ft
Heat Index 86 °F
Dew Point 79 °F
Humidity 99%
Rainfall 2.20 in
Snow Depth Not available.
UV 4 out of 12
Pollen 3.20 out of 12
Air Quality Not available.
Flu Activity Not available.
METAR KPIE 171953Z 00000KT 4SM -RA BR FEW009 BKN017 BKN026 26/24 A2989 RMK AO2 RAB52 SLP120 P0002 T02610239

More Conditions Fewer Conditions

10-Day Weather Forecast

Almanac

Astronomy

Sep. 17, 2014 Rise Set
Actual Time 7:17 AM EDT 7:33 PM EDT
Civil Twilight 6:53 AM EDT 7:56 PM EDT
Nautical Twilight 6:26 AM EDT 8:24 PM EDT
Astronomical Twilight 5:58 AM EDT 8:51 PM EDT
Moon 1:37 AM EDT 3:21 PM EDT
Length of Visible Light 13h 03m
Length of Day
12h 16m
Tomorrow will be 1m 37s shorter.
Waning Crescent, 33% of the Moon is Illuminated
Today
Waning Crescent
Sep 24
New
Oct 1
First Quarter
Oct 8
Full
Oct 15
Last Quarter

Today's Extremes

State Highs State Lows

Community

WunderPhotos

Upload Photos

1,754,157 photos uploaded!

Nearby

Air Quality

  Air Quality AQ Index Pollutant
Wednesday Good
PM2.5
Wednesday Good
OZONE
Thursday Good
PM2.5
Thursday Good
OZONE

Snow Depth

Station Depth Elevation
No new snow has been reported.

Earthquake Activity

City Distance Mag. Time & Date
No recent earthquake activity has been reported nearby.
Minimum magnitude displayed is 2.5.

Coastal Water Temperatures

Place Temperature
St Petersburg, FL 87.1 °F
Old Port Tampa, FL 84.0 °F

Nearby Weather Stations